createdAt,value
2023-04-18T00:00:49.823Z,70.60
2023-04-18T00:04:56.475Z,70.80
2023-04-18T00:09:02.583Z,70.70
2023-04-18T00:13:08.322Z,70.40
2023-04-18T00:17:14.505Z,70.50
2023-04-18T00:21:22.170Z,70.50
2023-04-18T00:25:27.835Z,70.50
2023-04-18T00:29:33.397Z,70.40
2023-04-18T00:33:38.950Z,71.00
2023-04-18T00:37:44.529Z,71.00
2023-04-18T00:41:50.011Z,71.10
2023-04-18T00:45:57.237Z,71.50
2023-04-18T00:50:03.291Z,71.70
2023-04-18T00:54:11.412Z,71.60
2023-04-18T00:58:17.089Z,71.30
2023-04-18T01:02:23.004Z,71.30
2023-04-18T01:06:30.091Z,71.50
2023-04-18T01:10:36.737Z,71.60
2023-04-18T01:14:43.456Z,71.70
2023-04-18T01:18:48.957Z,71.70
2023-04-18T01:22:55.606Z,71.70
2023-04-18T01:27:03.368Z,71.50
2023-04-18T01:31:08.998Z,71.50
2023-04-18T01:35:14.612Z,71.20
2023-04-18T01:39:20.297Z,71.60
2023-04-18T01:43:25.927Z,71.50
2023-04-18T01:47:31.663Z,71.40
2023-04-18T01:51:38.925Z,71.10
2023-04-18T01:55:44.724Z,70.90
2023-04-18T01:59:50.289Z,70.70
2023-04-18T02:03:56.289Z,70.40
2023-04-18T02:08:01.953Z,70.20
2023-04-18T02:12:07.719Z,70.20
2023-04-18T02:16:14.082Z,70.00
2023-04-18T02:20:19.863Z,69.70
2023-04-18T02:24:25.522Z,70.00
2023-04-18T02:28:31.244Z,69.20
2023-04-18T02:32:36.883Z,69.80
2023-04-18T02:36:43.007Z,69.10
2023-04-18T02:40:48.575Z,69.10
2023-04-18T02:44:54.140Z,69.20
2023-04-18T02:49:00.028Z,69.20
2023-04-18T02:53:05.677Z,69.20
2023-04-18T02:57:11.310Z,69.10
2023-04-18T03:01:18.500Z,69.00
2023-04-18T03:05:24.210Z,69.10
2023-04-18T03:09:30.238Z,68.90
2023-04-18T03:13:35.875Z,68.90
2023-04-18T03:17:42.065Z,68.70
2023-04-18T03:21:47.660Z,68.70
2023-04-18T03:25:53.190Z,68.80
2023-04-18T03:29:58.780Z,68.90
2023-04-18T03:34:04.298Z,69.10
2023-04-18T03:38:09.940Z,69.10
2023-04-18T03:42:15.554Z,69.20
2023-04-18T03:46:22.225Z,69.60
2023-04-18T03:50:27.861Z,70.30
2023-04-18T03:54:33.528Z,69.60
2023-04-18T03:58:39.160Z,69.80
2023-04-18T04:02:44.851Z,69.80
2023-04-18T04:06:51.018Z,70.10
2023-04-18T04:10:56.556Z,70.00
2023-04-18T04:15:02.127Z,70.00
2023-04-18T04:19:08.269Z,70.20
2023-04-18T04:23:14.118Z,70.20
2023-04-18T04:27:20.555Z,70.20
2023-04-18T04:31:26.280Z,70.20
2023-04-18T04:35:32.237Z,70.60
2023-04-18T04:39:37.873Z,70.90
2023-04-18T04:43:43.406Z,70.40
2023-04-18T04:47:49.103Z,70.60
2023-04-18T04:51:54.621Z,70.30
2023-04-18T04:56:00.332Z,70.20
2023-04-18T05:00:07.789Z,70.60
2023-04-18T05:04:14.010Z,70.70
2023-04-18T05:08:20.063Z,70.80
2023-04-18T05:12:27.034Z,70.80
2023-04-18T05:16:32.952Z,70.60
2023-04-18T05:20:38.551Z,70.30
2023-04-18T05:24:44.045Z,70.30
2023-04-18T05:28:49.661Z,70.30
2023-04-18T05:32:55.239Z,70.40
2023-04-18T05:37:00.860Z,70.20
2023-04-18T05:41:06.388Z,70.20
2023-04-18T05:45:12.353Z,70.00
2023-04-18T05:49:21.081Z,69.90
2023-04-18T05:53:26.674Z,69.90
2023-04-18T05:57:32.320Z,69.80
2023-04-18T06:01:37.922Z,69.50
2023-04-18T06:05:43.571Z,69.40
2023-04-18T06:09:49.833Z,69.40
2023-04-18T06:13:56.179Z,69.20
2023-04-18T06:18:01.797Z,69.10
2023-04-18T06:22:07.452Z,69.00
2023-04-18T06:26:13.371Z,68.80
2023-04-18T06:30:21.899Z,68.60
2023-04-18T06:34:27.579Z,68.80
2023-04-18T06:38:34.081Z,69.00
2023-04-18T06:42:39.687Z,69.00
2023-04-18T06:46:46.455Z,69.10
2023-04-18T06:50:52.009Z,68.90
2023-04-18T06:54:57.598Z,68.80
2023-04-18T06:59:03.156Z,69.00
2023-04-18T07:03:13.531Z,69.10
2023-04-18T07:07:20.444Z,69.10
2023-04-18T07:11:26.107Z,69.00
2023-04-18T07:15:31.641Z,68.60
2023-04-18T07:19:37.151Z,68.80
2023-04-18T07:23:42.760Z,68.50
2023-04-18T07:27:48.254Z,68.10
2023-04-18T07:31:53.781Z,68.20
2023-04-18T07:36:00.647Z,67.60
2023-04-18T07:40:07.130Z,67.50
2023-04-18T07:44:12.759Z,67.50
2023-04-18T07:48:18.994Z,67.10
2023-04-18T07:52:24.692Z,66.40
2023-04-18T07:56:30.208Z,65.80
2023-04-18T08:00:39.701Z,66.00
2023-04-18T08:04:47.386Z,66.30
2023-04-18T08:08:53.050Z,66.00
2023-04-18T08:12:58.661Z,65.80
2023-04-18T08:17:04.148Z,65.40
2023-04-18T08:21:09.680Z,65.20
2023-04-18T08:25:16.662Z,64.90
2023-04-18T08:29:22.168Z,64.90
2023-04-18T08:33:29.167Z,65.20
2023-04-18T08:37:35.504Z,64.30
2023-04-18T08:41:43.402Z,64.00
2023-04-18T08:45:49.141Z,64.60
2023-04-18T08:49:56.230Z,64.80
2023-04-18T08:54:04.600Z,63.20
2023-04-18T08:58:12.542Z,64.20
2023-04-18T09:02:19.243Z,63.30
2023-04-18T09:06:25.549Z,63.10
2023-04-18T09:10:34.340Z,62.30
2023-04-18T09:14:45.784Z,62.50
2023-04-18T09:19:18.169Z,63.30
2023-04-18T09:23:26.188Z,63.40
2023-04-18T09:27:35.161Z,63.60
2023-04-18T09:31:57.938Z,64.10
2023-04-18T09:36:23.431Z,64.00
2023-04-18T09:40:29.180Z,64.00
2023-04-18T09:44:34.883Z,64.20
2023-04-18T09:48:41.730Z,64.40
2023-04-18T09:52:48.674Z,64.40
2023-04-18T09:56:56.385Z,64.30
2023-04-18T10:01:04.153Z,64.20
2023-04-18T10:05:11.332Z,64.00
2023-04-18T10:09:17.753Z,64.20
2023-04-18T10:13:24.236Z,64.20
2023-04-18T10:17:29.902Z,63.80
2023-04-18T10:21:35.504Z,63.50
2023-04-18T10:25:41.285Z,63.50
2023-04-18T10:29:50.696Z,63.60
2023-04-18T10:38:17.215Z,63.40
2023-04-18T10:42:52.120Z,63.30
2023-04-18T10:46:57.841Z,63.50
2023-04-18T10:51:17.437Z,63.90
2023-04-18T10:55:28.913Z,63.00
2023-04-18T10:59:38.598Z,63.00
2023-04-18T11:03:44.347Z,63.70
2023-04-18T11:07:50.291Z,63.40
2023-04-18T11:12:11.521Z,63.70
2023-04-18T11:16:32.213Z,62.80
2023-04-18T11:20:40.979Z,62.40
2023-04-18T11:24:46.481Z,63.40
2023-04-18T11:28:53.240Z,63.00
2023-04-18T11:32:58.970Z,63.10
2023-04-18T11:37:08.470Z,62.80
2023-04-18T11:41:15.675Z,63.10
2023-04-18T11:45:21.240Z,63.00
2023-04-18T11:49:33.008Z,61.90
2023-04-18T11:53:39.588Z,62.20
2023-04-18T11:57:56.923Z,62.00
2023-04-18T12:02:15.481Z,62.10
2023-04-18T12:06:22.212Z,62.10
2023-04-18T12:10:29.784Z,61.50
2023-04-18T12:14:36.394Z,60.90
2023-04-18T12:18:42.255Z,61.10
2023-04-18T12:22:50.142Z,61.30
2023-04-18T12:26:58.092Z,61.30
2023-04-18T12:31:07.580Z,60.90
2023-04-18T12:35:13.173Z,61.20
2023-04-18T12:39:18.759Z,60.30
2023-04-18T12:43:24.264Z,60.50
2023-04-18T12:47:30.101Z,60.30
2023-04-18T12:51:35.733Z,60.20
2023-04-18T12:55:41.410Z,60.10
2023-04-18T12:59:46.916Z,60.00
2023-04-18T13:04:03.989Z,59.80
2023-04-18T13:08:18.115Z,59.70
2023-04-18T13:12:23.789Z,59.90
2023-04-18T13:16:29.446Z,59.60
2023-04-18T13:20:35.861Z,59.30
2023-04-18T13:24:41.354Z,59.80
2023-04-18T13:28:46.926Z,59.30
2023-04-18T13:32:52.483Z,59.00
2023-04-18T13:36:59.052Z,59.10
2023-04-18T13:41:12.089Z,59.40
2023-04-18T13:45:19.240Z,58.40
2023-04-18T13:49:24.912Z,58.30
2023-04-18T13:53:31.035Z,58.20
2023-04-18T13:57:37.413Z,57.70
2023-04-18T14:01:43.463Z,58.00
2023-04-18T14:05:49.051Z,58.00
2023-04-18T14:09:54.680Z,57.90
2023-04-18T14:14:00.249Z,57.60
2023-04-18T14:18:06.442Z,57.50
2023-04-18T14:22:12.106Z,57.20
2023-04-18T14:26:18.568Z,56.30
2023-04-18T14:30:24.215Z,56.00
2023-04-18T14:34:31.224Z,56.60
2023-04-18T14:38:38.878Z,56.00
2023-04-18T14:42:44.514Z,55.70
2023-04-18T14:46:50.072Z,56.10
2023-04-18T14:51:02.486Z,56.40
2023-04-18T14:55:09.461Z,55.80
2023-04-18T14:59:16.716Z,55.70
2023-04-18T15:03:22.906Z,55.20
2023-04-18T15:07:28.565Z,55.00
2023-04-18T15:11:34.135Z,55.10
2023-04-18T15:15:39.882Z,55.20
2023-04-18T15:19:45.533Z,54.80
2023-04-18T15:23:51.202Z,55.00
2023-04-18T15:27:57.538Z,55.20
2023-04-18T15:32:03.118Z,54.70
2023-04-18T15:36:10.019Z,53.90
2023-04-18T15:40:18.771Z,54.70
2023-04-18T15:44:24.508Z,54.50
2023-04-18T15:48:33.982Z,54.50
2023-04-18T15:52:41.460Z,54.00
2023-04-18T15:56:46.971Z,54.30
2023-04-18T16:00:53.552Z,54.00
2023-04-18T16:04:59.117Z,54.00
2023-04-18T16:09:06.887Z,53.70
2023-04-18T16:13:12.590Z,54.30
2023-04-18T16:17:18.022Z,53.80
2023-04-18T16:21:23.612Z,53.60
2023-04-18T16:25:29.131Z,54.20
2023-04-18T16:29:35.648Z,54.60
2023-04-18T16:33:41.275Z,54.10
2023-04-18T16:37:47.254Z,54.30
2023-04-18T16:41:52.789Z,54.60
2023-04-18T16:46:00.321Z,55.00
2023-04-18T16:50:07.491Z,55.10
2023-04-18T16:54:13.247Z,55.20
2023-04-18T16:58:20.191Z,55.10
2023-04-18T17:02:25.952Z,55.60
2023-04-18T17:06:32.660Z,55.60
2023-04-18T17:10:38.307Z,55.60
2023-04-18T17:14:43.953Z,55.80
2023-04-18T17:18:49.399Z,56.30
2023-04-18T17:22:55.518Z,56.70
2023-04-18T17:27:01.305Z,57.20
2023-04-18T17:31:07.590Z,57.20
2023-04-18T17:35:14.712Z,57.50
2023-04-18T17:39:20.330Z,57.70
2023-04-18T17:43:26.373Z,57.90
2023-04-18T17:47:33.498Z,58.40
2023-04-18T17:51:39.061Z,58.60
2023-04-18T17:55:46.835Z,58.60
2023-04-18T17:59:52.701Z,58.70
2023-04-18T18:03:58.960Z,58.70
2023-04-18T18:08:05.109Z,58.80
2023-04-18T18:12:11.457Z,58.90
2023-04-18T18:16:17.087Z,59.00
2023-04-18T18:20:22.714Z,58.90
2023-04-18T18:24:28.310Z,58.80
2023-04-18T18:28:34.089Z,58.90
2023-04-18T18:32:39.686Z,59.00
2023-04-18T18:36:46.117Z,59.20
2023-04-18T18:40:51.819Z,59.00
2023-04-18T18:44:57.364Z,58.70
2023-04-18T18:49:03.127Z,58.60
2023-04-18T18:53:08.796Z,58.60
2023-04-18T18:57:14.465Z,58.80
2023-04-18T19:01:20.607Z,59.00
2023-04-18T19:05:26.458Z,59.30
2023-04-18T19:09:32.002Z,59.40
2023-04-18T19:13:37.497Z,59.80
2023-04-18T19:17:43.088Z,59.70
2023-04-18T19:21:48.706Z,59.90
2023-04-18T19:25:54.228Z,60.20
2023-04-18T19:29:59.720Z,60.60
2023-04-18T19:34:05.303Z,60.70
2023-04-18T19:38:10.948Z,60.80
2023-04-18T19:42:16.412Z,61.00
2023-04-18T19:46:21.996Z,61.00
2023-04-18T19:50:27.936Z,61.00
2023-04-18T19:54:34.109Z,61.20
2023-04-18T19:58:46.890Z,61.60
2023-04-18T20:02:53.459Z,61.60
2023-04-18T20:06:59.153Z,61.80
2023-04-18T20:11:09.957Z,62.00
2023-04-18T20:15:15.532Z,62.10
2023-04-18T20:19:21.131Z,62.30
2023-04-18T20:23:26.730Z,62.20
2023-04-18T20:27:32.218Z,62.40
2023-04-18T20:31:42.153Z,62.60
2023-04-18T20:35:47.845Z,62.80
2023-04-18T20:39:54.669Z,63.10
2023-04-18T20:44:05.016Z,63.20
2023-04-18T20:48:10.634Z,63.40
2023-04-18T20:52:16.407Z,63.50
2023-04-18T20:56:22.104Z,63.70
2023-04-18T21:00:28.682Z,63.90
2023-04-18T21:04:34.870Z,64.10
2023-04-18T21:08:40.687Z,64.20
2023-04-18T21:12:46.539Z,64.70
2023-04-18T21:16:52.033Z,64.60
2023-04-18T21:20:57.627Z,64.90
2023-04-18T21:25:04.368Z,65.00
2023-04-18T21:29:10.054Z,65.10
2023-04-18T21:33:15.625Z,65.10
2023-04-18T21:37:21.208Z,65.30
2023-04-18T21:41:27.840Z,65.40
2023-04-18T21:45:33.767Z,65.50
2023-04-18T21:49:39.244Z,65.70
2023-04-18T21:53:45.092Z,66.00
2023-04-18T21:57:50.713Z,66.20
2023-04-18T22:01:56.321Z,66.30
2023-04-18T22:06:02.605Z,66.50
2023-04-18T22:10:08.878Z,66.60
2023-04-18T22:14:17.295Z,66.90
2023-04-18T22:18:22.936Z,67.40
2023-04-18T22:22:28.461Z,66.50
2023-04-18T22:26:33.918Z,66.50
2023-04-18T22:30:39.668Z,66.60
2023-04-18T22:34:45.396Z,66.40
2023-04-18T22:38:50.891Z,66.40
2023-04-18T22:42:56.384Z,66.30
2023-04-18T22:47:03.029Z,66.20
2023-04-18T22:51:08.545Z,66.10
2023-04-18T22:55:16.461Z,66.10
2023-04-18T22:59:22.206Z,66.40
2023-04-18T23:03:27.907Z,66.50
2023-04-18T23:07:33.593Z,67.30
2023-04-18T23:11:39.109Z,67.70
2023-04-18T23:15:44.800Z,67.50
2023-04-18T23:19:50.382Z,67.50
2023-04-18T23:23:56.350Z,67.50
2023-04-18T23:28:01.950Z,67.60
2023-04-18T23:32:07.655Z,67.80
2023-04-18T23:36:13.313Z,67.70
2023-04-18T23:40:20.188Z,67.90
2023-04-18T23:44:25.771Z,68.00
2023-04-18T23:48:31.327Z,68.20
2023-04-18T23:52:38.520Z,68.00
2023-04-18T23:56:44.055Z,68.40
